Time;durP1;ratioP1;P1;durP2;ratioP2;P2;SDS_P1;SDS_P2;PMS_P1;PMS_P2;Temp;Humidity;BMP_temperature;BMP_pressure;BME280_temperature;BME280_humidity;BME280_pressure;Samples;Min_cycle;Max_cycle;Signal;HPM_P1;HPM_P2
2023/08/03 00:00:21;;;;;;;0.40;0.40;;;;;;;16.13;92.21;95571.50;29396;228;63004;-55
2023/08/03 00:00:52;;;;;;;0.40;0.40;;;;;;;16.19;93.73;95559.13;29396;233;63008;-55
2023/08/03 00:02:35;;;;;;;0.45;0.45;;;;;;;16.20;93.72;95560.72;88169;216;64004;-55
2023/08/03 00:03:07;;;;;;;0.40;0.40;;;;;;;16.21;93.74;95566.97;29394;224;64009;-55
2023/08/03 00:03:38;;;;;;;0.40;0.40;;;;;;;16.15;91.83;95558.25;29395;216;63005;-56
2023/08/03 00:04:09;;;;;;;0.40;0.40;;;;;;;16.11;92.79;95562.06;29395;237;63014;-56
2023/08/03 00:04:40;;;;;;;0.40;0.40;;;;;;;16.11;93.94;95562.06;29395;254;63010;-55
2023/08/03 00:05:17;;;;;;;0.40;0.40;;;;;;;16.06;93.65;95561.22;29395;251;63009;-55
2023/08/03 00:05:48;;;;;;;0.40;0.40;;;;;;;16.02;93.06;95560.34;29394;197;64009;-55
2023/08/03 00:06:20;;;;;;;0.55;0.55;;;;;;;16.05;93.34;95559.63;29394;246;64013;-56
2023/08/03 00:06:54;;;;;;;0.40;0.40;;;;;;;16.05;91.89;95559.63;29395;238;63004;-56
2023/08/03 00:07:27;;;;;;;0.40;0.40;;;;;;;16.07;93.48;95562.78;29395;225;63009;-56
2023/08/03 00:08:00;;;;;;;0.40;0.40;;;;;;;16.08;93.99;95567.13;29395;213;63004;-54
2023/08/03 00:08:31;;;;;;;0.40;0.40;;;;;;;16.09;94.07;95565.97;29395;203;63008;-60
2023/08/03 00:09:03;;;;;;;0.40;0.40;;;;;;;16.14;92.56;95562.16;29395;210;63008;-54
2023/08/03 00:09:35;;;;;;;0.50;0.50;;;;;;;16.12;92.10;95564.44;29395;204;63009;-55
2023/08/03 00:10:07;;;;;;;0.40;0.40;;;;;;;16.11;92.25;95564.81;29395;235;63005;-55
2023/08/03 00:10:39;;;;;;;0.40;0.40;;;;;;;16.11;92.04;95570.28;29395;227;63009;-55
2023/08/03 00:11:10;;;;;;;0.40;0.40;;;;;;;16.17;91.35;95572.37;29394;226;64009;-54
2023/08/03 00:11:43;;;;;;;0.50;0.50;;;;;;;16.22;90.89;95574.03;29394;229;64013;-61
2023/08/03 00:12:17;;;;;;;0.40;0.40;;;;;;;16.23;91.20;95575.63;29395;221;63009;-54
2023/08/03 00:12:50;;;;;;;0.40;0.40;;;;;;;16.21;91.16;95572.44;29395;238;63015;-55
2023/08/03 00:13:22;;;;;;;0.40;0.40;;;;;;;16.16;90.31;95575.47;29395;203;63004;-64
2023/08/03 00:13:53;;;;;;;0.50;0.50;;;;;;;16.17;91.95;95571.59;29395;213;63009;-55
2023/08/03 00:14:25;;;;;;;0.50;0.50;;;;;;;16.14;91.73;95578.56;29395;228;63004;-54
2023/08/03 00:14:56;;;;;;;0.40;0.40;;;;;;;16.09;91.57;95571.44;29395;215;63009;-54
2023/08/03 00:15:28;;;;;;;0.40;0.40;;;;;;;16.07;92.35;95579.22;29395;220;63004;-55
2023/08/03 00:16:00;;;;;;;0.43;0.43;;;;;;;16.08;92.67;95571.78;29394;224;64013;-56
2023/08/03 00:16:31;;;;;;;0.40;0.40;;;;;;;16.11;92.58;95578.50;29395;217;63005;-55
2023/08/03 00:17:03;;;;;;;0.40;0.40;;;;;;;16.09;92.45;95581.59;29395;301;63009;-54
2023/08/03 00:17:35;;;;;;;0.40;0.40;;;;;;;16.11;93.30;95578.50;29395;223;63005;-54
2023/08/03 00:18:06;;;;;;;0.40;0.40;;;;;;;16.15;93.12;95571.16;29395;225;63009;-54
2023/08/03 00:18:37;;;;;;;0.40;0.40;;;;;;;16.16;92.13;95581.75;29395;214;63005;-60
2023/08/03 00:19:08;;;;;;;0.40;0.40;;;;;;;16.15;92.35;95573.88;29394;211;64013;-55
2023/08/03 00:19:40;;;;;;;0.40;0.40;;;;;;;16.19;92.22;95575.53;29395;221;63011;-55
2023/08/03 00:20:12;;;;;;;0.40;0.40;;;;;;;16.19;91.61;95577.50;29395;220;63016;-55
2023/08/03 00:20:43;;;;;;;0.40;0.40;;;;;;;16.20;92.72;95576.34;29394;296;64009;-56
2023/08/03 00:21:14;;;;;;;0.50;0.50;;;;;;;16.20;91.89;95566.19;29395;218;63009;-55
2023/08/03 00:21:49;;;;;;;0.40;0.40;;;;;;;16.19;92.29;95580.22;29395;236;63004;-55
2023/08/03 00:22:20;;;;;;;0.40;0.40;;;;;;;16.17;93.03;95571.59;29395;253;63009;-55
2023/08/03 00:22:51;;;;;;;0.40;0.40;;;;;;;16.16;93.76;95580.94;29395;207;63004;-56
2023/08/03 00:23:23;;;;;;;0.40;0.40;;;;;;;16.14;94.50;95566.81;29395;275;63008;-57
2023/08/03 00:23:54;;;;;;;0.40;0.40;;;;;;;16.14;95.63;95575.84;29395;311;63009;-55
2023/08/03 00:24:26;;;;;;;0.40;0.40;;;;;;;16.16;94.14;95570.00;29395;270;63009;-55
2023/08/03 00:24:59;;;;;;;0.40;0.40;;;;;;;16.17;93.74;95574.31;29394;219;64009;-55
2023/08/03 00:25:31;;;;;;;0.40;0.40;;;;;;;16.17;93.81;95574.31;29395;219;63009;-56
2023/08/03 00:26:02;;;;;;;0.40;0.40;;;;;;;16.21;94.43;95580.66;29394;209;64009;-55
2023/08/03 00:26:35;;;;;;;0.40;0.40;;;;;;;16.20;94.35;95579.06;29395;210;63018;-55
2023/08/03 00:27:07;;;;;;;0.40;0.40;;;;;;;16.19;93.88;95572.03;29395;202;63005;-55
2023/08/03 00:27:38;;;;;;;0.40;0.40;;;;;;;16.18;94.21;95584.12;29395;215;63009;-55
2023/08/03 00:28:09;;;;;;;0.40;0.40;;;;;;;16.19;92.92;95580.22;29395;208;63004;-56
2023/08/03 00:28:42;;;;;;;0.47;0.47;;;;;;;16.24;93.26;95577.22;29395;251;63009;-55
2023/08/03 00:29:13;;;;;;;0.40;0.40;;;;;;;16.25;93.07;95584.25;29394;203;64009;-55
2023/08/03 00:29:44;;;;;;;0.50;0.50;;;;;;;16.25;93.33;95578.78;29395;223;63009;-55
2023/08/03 00:30:19;;;;;;;0.40;0.40;;;;;;;16.23;93.44;95584.62;29395;257;63004;-54
2023/08/03 00:30:51;;;;;;;0.40;0.40;;;;;;;16.18;93.00;95578.66;29395;208;63008;-54
2023/08/03 00:31:22;;;;;;;0.40;0.40;;;;;;;16.18;93.19;95578.66;29394;225;64009;-55
2023/08/03 00:31:54;;;;;;;0.40;0.40;;;;;;;16.20;94.94;95581.81;29395;216;63014;-56
2023/08/03 00:32:25;;;;;;;0.45;0.45;;;;;;;16.23;93.83;95581.88;29395;268;63005;-54
2023/08/03 00:32:56;;;;;;;0.80;0.80;;;;;;;16.27;92.80;95571.00;29395;231;63009;-54
2023/08/03 00:33:28;;;;;;;0.40;0.40;;;;;;;16.27;92.11;95573.75;29395;240;63005;-56
2023/08/03 00:33:59;;;;;;;0.40;0.40;;;;;;;16.25;93.16;95568.62;29395;214;63018;-55
2023/08/03 00:34:31;;;;;;;0.50;0.50;;;;;;;16.23;93.69;95562.72;29394;238;64009;-55
2023/08/03 00:35:02;;;;;;;0.40;0.40;;;;;;;16.20;94.07;95568.91;29395;239;63009;-55
2023/08/03 00:35:34;;;;;;;0.40;0.40;;;;;;;16.21;95.09;95561.50;29395;250;63004;-55
2023/08/03 00:36:08;;;;;;;0.40;0.40;;;;;;;16.23;94.43;95564.69;29395;218;63009;-55
2023/08/03 00:36:40;;;;;;;0.40;0.40;;;;;;;16.23;94.02;95564.69;29395;242;63010;-55
2023/08/03 00:37:11;;;;;;;0.40;0.40;;;;;;;16.25;94.14;95573.31;29394;245;64034;-55
2023/08/03 00:37:43;;;;;;;0.40;0.40;;;;;;;16.24;94.68;95571.72;29395;202;63004;-55
2023/08/03 00:38:14;;;;;;;0.43;0.43;;;;;;;16.24;94.14;95574.47;29395;227;63008;-55
2023/08/03 00:38:45;;;;;;;0.40;0.40;;;;;;;16.25;93.79;95567.84;29395;220;63005;-54
2023/08/03 00:39:16;;;;;;;0.45;0.45;;;;;;;16.24;93.61;95580.72;29395;231;63009;-55
2023/08/03 00:39:47;;;;;;;0.40;0.40;;;;;;;16.22;93.28;95566.63;29395;211;63005;-61
2023/08/03 00:40:20;;;;;;;0.47;0.47;;;;;;;16.22;93.59;95565.81;29394;274;64032;-55
2023/08/03 00:40:53;;;;;;;0.40;0.40;;;;;;;16.19;93.59;95563.81;29395;253;63005;-56
2023/08/03 00:41:24;;;;;;;0.40;0.40;;;;;;;16.17;94.41;95566.13;29395;247;63009;-57
2023/08/03 00:41:55;;;;;;;0.40;0.40;;;;;;;16.21;93.71;95561.50;29395;206;63005;-55
2023/08/03 00:42:27;;;;;;;0.82;0.80;;;;;;;16.20;93.78;95571.66;29395;225;63009;-55
2023/08/03 00:42:59;;;;;;;0.40;0.40;;;;;;;16.21;94.42;95567.78;29395;209;63004;-55
2023/08/03 00:43:32;;;;;;;0.40;0.40;;;;;;;16.23;94.99;95570.16;29395;197;63009;-56
2023/08/03 00:44:03;;;;;;;0.50;0.50;;;;;;;16.24;94.17;95566.25;29395;215;63004;-56
2023/08/03 00:44:35;;;;;;;0.40;0.40;;;;;;;16.28;93.36;95564.37;29395;246;63009;-55
2023/08/03 00:45:13;;;;;;;0.40;0.40;;;;;;;16.28;92.77;95562.44;29395;222;63004;-69
2023/08/03 00:45:44;;;;;;;0.40;0.40;;;;;;;16.26;92.80;95558.47;29394;225;64014;-54
2023/08/03 00:46:16;;;;;;;0.40;0.40;;;;;;;16.24;91.77;95560.78;29395;241;63005;-54
2023/08/03 00:46:48;;;;;;;0.50;0.50;;;;;;;16.24;91.93;95560.78;29395;271;63009;-56
2023/08/03 00:47:23;;;;;;;0.40;0.40;;;;;;;16.22;93.38;95568.56;29395;250;63005;-56
2023/08/03 00:47:54;;;;;;;0.40;0.40;;;;;;;16.19;93.49;95566.53;29394;230;64009;-55
2023/08/03 00:48:27;;;;;;;0.40;0.40;;;;;;;16.16;93.35;95575.47;29395;207;63005;-56
2023/08/03 00:48:58;;;;;;;0.40;0.40;;;;;;;16.15;93.55;95566.47;29395;214;63009;-55
2023/08/03 00:49:29;;;;;;;0.40;0.40;;;;;;;16.11;93.79;95564.81;29395;249;63005;-54
2023/08/03 00:50:00;;;;;;;0.40;0.40;;;;;;;16.12;94.54;95564.44;29395;220;63009;-56
2023/08/03 00:50:32;;;;;;;0.40;0.40;;;;;;;16.12;93.80;95564.44;29395;220;63004;-56
2023/08/03 00:51:03;;;;;;;0.40;0.40;;;;;;;16.13;94.38;95559.78;29394;218;64013;-56
2023/08/03 00:51:34;;;;;;;0.40;0.40;;;;;;;16.11;93.21;95562.06;29395;217;63004;-56
2023/08/03 00:52:06;;;;;;;0.45;0.45;;;;;;;16.18;93.11;95554.00;29394;215;64009;-54
2023/08/03 00:52:39;;;;;;;0.40;0.40;;;;;;;16.16;91.56;95543.44;29395;233;63004;-55
2023/08/03 00:53:10;;;;;;;0.40;0.40;;;;;;;16.23;92.35;95542.78;29395;208;63009;-54
2023/08/03 00:53:45;;;;;;;0.40;0.40;;;;;;;16.23;91.59;95551.78;29395;238;63005;-55
2023/08/03 00:54:20;;;;;;;0.40;0.40;;;;;;;16.25;92.73;95551.44;29395;219;63021;-55
2023/08/03 00:54:51;;;;;;;0.50;0.50;;;;;;;16.21;92.27;95553.28;29395;266;63005;-55
2023/08/03 00:55:22;;;;;;;0.50;0.50;;;;;;;16.21;93.03;95556.03;29395;227;63009;-55
2023/08/03 00:55:53;;;;;;;0.40;0.40;;;;;;;16.21;92.79;95556.03;29395;202;63009;-54
2023/08/03 00:56:25;;;;;;;0.40;0.40;;;;;;;16.18;93.22;95567.69;29394;225;64013;-55
2023/08/03 00:56:57;;;;;;;0.40;0.40;;;;;;;16.15;93.38;95569.22;29395;212;63005;-57
2023/08/03 00:57:29;;;;;;;0.50;0.50;;;;;;;16.08;91.84;95569.84;29395;204;63009;-53
2023/08/03 00:58:01;;;;;;;0.40;0.40;;;;;;;16.09;93.48;95562.44;29395;223;63004;-55
2023/08/03 00:58:33;;;;;;;0.40;0.40;;;;;;;16.08;94.82;95558.91;29395;241;63009;-55
2023/08/03 00:59:10;;;;;;;0.50;0.50;;;;;;;16.08;94.41;95569.84;29395;223;63007;-55
2023/08/03 00:59:44;;;;;;;0.40;0.40;;;;;;;16.06;94.24;95563.94;29395;198;63009;-55
2023/08/03 01:00:16;;;;;;;0.50;0.50;;;;;;;16.04;94.80;95563.50;29395;295;63004;-55
2023/08/03 01:00:47;;;;;;;0.40;0.40;;;;;;;16.03;94.97;95564.66;29394;219;64014;-56
2023/08/03 01:01:20;;;;;;;0.40;0.40;;;;;;;16.01;95.32;95556.03;29395;219;63005;-55
2023/08/03 01:01:52;;;;;;;0.40;0.40;;;;;;;16.02;95.65;95565.81;29395;207;63009;-56
2023/08/03 01:02:23;;;;;;;0.50;0.50;;;;;;;16.00;94.78;95559.91;29394;260;64009;-55
2023/08/03 01:02:54;;;;;;;0.43;0.43;;;;;;;16.00;94.81;95557.16;29395;206;63009;-55
2023/08/03 01:03:26;;;;;;;0.50;0.50;;;;;;;15.98;94.52;95558.69;29395;211;63005;-55
2023/08/03 01:03:58;;;;;;;0.40;0.40;;;;;;;15.96;94.85;95560.97;29395;204;63009;-64
2023/08/03 01:04:33;;;;;;;0.50;0.50;;;;;;;15.94;95.04;95563.31;29395;220;63005;-55
2023/08/03 01:05:05;;;;;;;0.40;0.40;;;;;;;15.94;95.95;95564.06;29395;246;63009;-56
2023/08/03 01:05:37;;;;;;;0.40;0.40;;;;;;;15.95;96.51;95565.66;29395;198;63007;-54
2023/08/03 01:06:08;;;;;;;0.40;0.40;;;;;;;15.94;95.97;95569.53;29394;218;64013;-55
2023/08/03 01:06:39;;;;;;;0.40;0.40;;;;;;;15.94;95.87;95574.25;29395;267;63004;-55
2023/08/03 01:07:13;;;;;;;0.50;0.50;;;;;;;15.97;96.74;95571.56;29395;212;63009;-55
2023/08/03 01:07:45;;;;;;;0.50;0.50;;;;;;;15.98;96.12;95564.94;29394;223;64008;-53
2023/08/03 01:08:16;;;;;;;0.47;0.47;;;;;;;15.98;95.25;95575.09;29395;225;63009;-55
2023/08/03 01:08:47;;;;;;;0.50;0.50;;;;;;;16.00;93.95;95565.37;29395;264;63008;-54
2023/08/03 01:09:19;;;;;;;0.50;0.50;;;;;;;16.03;93.94;95567.41;29395;241;63009;-55
2023/08/03 01:09:51;;;;;;;0.47;0.47;;;;;;;16.03;92.99;95561.94;29395;205;63010;-55
2023/08/03 01:10:22;;;;;;;0.40;0.40;;;;;;;16.05;94.57;95556.87;29395;232;63028;-57
2023/08/03 01:10:54;;;;;;;0.40;0.40;;;;;;;16.04;92.76;95558.03;29395;205;63005;-62
2023/08/03 01:11:27;;;;;;;0.50;0.50;;;;;;;16.04;93.39;95560.78;29394;234;64004;-55
2023/08/03 01:11:58;;;;;;;0.40;0.40;;;;;;;16.07;94.32;95562.78;29395;224;63005;-56
2023/08/03 01:12:29;;;;;;;0.50;0.50;;;;;;;16.07;93.62;95562.78;29395;276;63009;-55
2023/08/03 01:13:01;;;;;;;0.50;0.50;;;;;;;16.08;93.63;95564.37;29395;204;63009;-54
2023/08/03 01:13:32;;;;;;;0.40;0.40;;;;;;;16.07;93.92;95567.47;29395;234;63009;-55
2023/08/03 01:14:04;;;;;;;0.40;0.40;;;;;;;16.06;94.86;95580.34;29395;238;63004;-55
2023/08/03 01:14:36;;;;;;;0.40;0.40;;;;;;;16.12;92.99;95558.19;29395;230;63009;-55
2023/08/03 01:15:08;;;;;;;0.40;0.40;;;;;;;16.14;93.57;95572.31;29395;214;63004;-56
2023/08/03 01:15:42;;;;;;;0.50;0.50;;;;;;;16.17;93.65;95563.38;29395;232;63009;-59
2023/08/03 01:16:15;;;;;;;0.40;0.40;;;;;;;16.18;91.40;95570.44;29395;205;63005;-55
2023/08/03 01:16:46;;;;;;;0.43;0.43;;;;;;;16.16;91.19;95575.47;29394;202;64014;-57
2023/08/03 01:17:17;;;;;;;0.40;0.40;;;;;;;16.18;91.69;95573.16;29395;230;63005;-56
2023/08/03 01:17:49;;;;;;;0.40;0.40;;;;;;;16.22;91.63;95579.50;29395;234;63009;-56
2023/08/03 01:18:21;;;;;;;0.50;0.50;;;;;;;16.23;91.78;95573.69;29395;203;63005;-54
2023/08/03 01:18:52;;;;;;;0.40;0.40;;;;;;;16.21;92.24;95580.66;29395;264;63009;-56
2023/08/03 01:19:24;;;;;;;0.40;0.40;;;;;;;16.23;91.90;95578.34;29395;218;63005;-56
2023/08/03 01:19:56;;;;;;;0.37;0.37;;;;;;;16.20;91.67;95576.34;29395;228;63009;-54
2023/08/03 01:20:28;;;;;;;0.43;0.43;;;;;;;16.19;91.76;95581.03;29395;252;63004;-56
2023/08/03 01:21:00;;;;;;;0.30;0.30;;;;;;;16.24;90.91;95582.69;29395;223;63009;-60
2023/08/03 01:21:33;;;;;;;0.40;0.40;;;;;;;16.25;89.94;95573.31;29395;252;63004;-55
2023/08/03 01:22:08;;;;;;;0.47;0.47;;;;;;;16.27;90.25;95584.69;29394;219;64013;-55
2023/08/03 01:22:43;;;;;;;0.50;0.50;;;;;;;16.33;89.28;95584.03;29395;233;63004;-57
2023/08/03 01:23:15;;;;;;;0.73;0.73;;;;;;;16.36;89.16;95586.03;29395;203;63009;-66
2023/08/03 01:23:47;;;;;;;0.43;0.43;;;;;;;16.42;88.37;95592.03;29395;228;63005;-56
2023/08/03 01:24:18;;;;;;;0.50;0.50;;;;;;;16.39;88.66;95577.09;29395;202;63009;-54
2023/08/03 01:24:50;;;;;;;0.40;0.40;;;;;;;16.41;89.62;95566.59;29395;227;63005;-55
2023/08/03 01:25:21;;;;;;;0.40;0.40;;;;;;;16.45;89.54;95595.97;29395;209;63009;-55
2023/08/03 01:25:53;;;;;;;0.50;0.50;;;;;;;16.46;88.08;95584.66;29395;234;63005;-63
2023/08/03 01:26:25;;;;;;;0.40;0.40;;;;;;;16.50;87.66;95582.78;29395;198;63009;-56
2023/08/03 01:27:00;;;;;;;0.50;0.50;;;;;;;16.46;87.36;95579.19;29394;253;64005;-54
2023/08/03 01:27:31;;;;;;;0.40;0.40;;;;;;;16.42;88.06;95572.84;29394;197;64013;-55
2023/08/03 01:28:06;;;;;;;0.40;0.40;;;;;;;16.41;88.76;95574.00;29395;257;63004;-54
2023/08/03 01:28:37;;;;;;;0.40;0.40;;;;;;;16.39;89.18;95568.09;29395;205;63009;-56
2023/08/03 01:29:09;;;;;;;0.40;0.40;;;;;;;16.36;89.81;95569.62;29395;218;63004;-55
2023/08/03 01:29:42;;;;;;;0.47;0.47;;;;;;;16.37;89.49;95571.19;29395;291;63013;-56
2023/08/03 01:30:13;;;;;;;0.40;0.40;;;;;;;16.32;87.76;95567.97;29395;215;63004;-55
2023/08/03 01:30:44;;;;;;;0.50;0.50;;;;;;;16.31;88.70;95566.38;29395;208;63008;-56
2023/08/03 01:31:26;;;;;;;0.40;0.40;;;;;;;16.43;87.85;95563.50;29394;255;64009;-55
2023/08/03 01:32:02;;;;;;;0.40;0.40;;;;;;;16.42;87.52;95562.69;29394;219;64014;-56
2023/08/03 01:32:34;;;;;;;0.47;0.47;;;;;;;16.42;88.28;95567.38;29395;243;63005;-54
2023/08/03 01:33:06;;;;;;;0.52;0.52;;;;;;;16.42;88.34;95567.38;29395;233;63009;-56
2023/08/03 01:33:38;;;;;;;0.40;0.40;;;;;;;16.45;86.44;95572.13;29395;200;63005;-57
2023/08/03 01:34:13;;;;;;;0.40;0.40;;;;;;;16.51;84.68;95578.91;29395;212;63009;-55
2023/08/03 01:34:44;;;;;;;0.40;0.40;;;;;;;16.55;85.64;95576.22;29395;210;63005;-57
2023/08/03 01:35:18;;;;;;;0.40;0.40;;;;;;;16.55;85.49;95581.72;29395;198;63009;-56
2023/08/03 01:35:51;;;;;;;0.45;0.45;;;;;;;16.51;84.91;95559.75;29395;229;63004;-54
2023/08/03 01:36:22;;;;;;;0.50;0.50;;;;;;;16.52;84.18;95564.06;29395;202;63009;-55
2023/08/03 01:36:58;;;;;;;0.47;0.47;;;;;;;16.48;84.15;95570.63;29395;215;63007;-56
2023/08/03 01:37:29;;;;;;;0.43;0.43;;;;;;;16.45;85.70;95560.38;29394;202;64013;-55
2023/08/03 01:38:00;;;;;;;1.20;1.12;;;;;;;16.47;85.31;95558.88;29395;258;63015;-55
2023/08/03 01:38:32;;;;;;;0.50;0.50;;;;;;;16.45;85.44;95563.91;29395;197;63009;-56
2023/08/03 01:39:09;;;;;;;0.40;0.40;;;;;;;16.42;84.25;95564.66;29395;219;63008;-55
2023/08/03 01:39:45;;;;;;;0.50;0.50;;;;;;;16.41;86.15;95555.63;29395;210;63009;-59
2023/08/03 01:40:17;;;;;;;0.40;0.40;;;;;;;16.46;85.65;95562.78;29395;248;63005;-59
2023/08/03 01:40:48;;;;;;;0.40;0.40;;;;;;;16.43;84.18;95538.84;29395;221;63009;-58
2023/08/03 01:41:21;;;;;;;0.43;0.43;;;;;;;16.42;84.10;95534.53;29394;234;64025;-55
2023/08/03 01:41:52;;;;;;;0.50;0.50;;;;;;;16.38;83.31;95547.34;29395;208;63009;-56
2023/08/03 01:42:28;;;;;;;0.50;0.50;;;;;;;16.34;84.00;95547.28;29395;197;63008;-56
2023/08/03 01:43:05;;;;;;;0.50;0.50;;;;;;;16.36;86.07;95541.44;29395;217;63009;-56
2023/08/03 01:43:37;;;;;;;0.40;0.40;;;;;;;16.39;84.74;95543.47;29395;241;63004;-56
2023/08/03 01:44:30;;;;;;;0.40;0.40;;;;;;;16.37;84.71;95559.47;29395;245;63009;-56
2023/08/03 01:45:01;;;;;;;0.40;0.40;;;;;;;16.37;84.95;95560.25;29395;218;63004;-56
2023/08/03 01:45:32;;;;;;;0.40;0.40;;;;;;;16.35;84.93;95548.88;29394;238;64013;-56
2023/08/03 01:46:05;;;;;;;0.40;0.40;;;;;;;16.35;84.23;95553.56;29395;243;63005;-58
2023/08/03 01:46:36;;;;;;;0.40;0.40;;;;;;;16.42;83.57;95562.69;29395;248;63009;-56
2023/08/03 01:47:10;;;;;;;0.40;0.40;;;;;;;16.44;82.44;95562.34;29394;242;64009;-56
2023/08/03 01:47:41;;;;;;;0.40;0.40;;;;;;;16.41;82.89;95557.59;29395;225;63009;-55
2023/08/03 01:48:14;;;;;;;0.50;0.50;;;;;;;16.39;84.11;95562.63;29395;224;63005;-56
2023/08/03 01:48:45;;;;;;;0.43;0.43;;;;;;;16.35;84.14;95556.28;29395;222;63017;-56
2023/08/03 01:49:17;;;;;;;0.40;0.40;;;;;;;16.32;83.66;95551.53;29395;206;63004;-58
2023/08/03 01:49:48;;;;;;;0.50;0.50;;;;;;;16.28;84.09;95554.22;29395;241;63009;-56
2023/08/03 01:50:19;;;;;;;0.40;0.40;;;;;;;16.26;84.44;95558.47;29395;202;63004;-56
2023/08/03 01:50:51;;;;;;;0.40;0.40;;;;;;;16.24;85.66;95558.84;29395;202;63009;-56
2023/08/03 01:51:22;;;;;;;0.40;0.40;;;;;;;16.25;86.30;95556.91;29394;232;64004;-55
2023/08/03 01:51:53;;;;;;;0.40;0.40;;;;;;;16.26;85.67;95553.00;29394;243;64013;-58
2023/08/03 01:52:24;;;;;;;0.40;0.40;;;;;;;16.27;82.64;95557.34;29395;205;63004;-55
2023/08/03 01:52:56;;;;;;;0.40;0.40;;;;;;;16.27;82.72;95555.38;29395;230;63009;-56
2023/08/03 01:53:27;;;;;;;0.40;0.40;;;;;;;16.26;83.65;95567.47;29395;242;63005;-56
2023/08/03 01:53:58;;;;;;;0.40;0.40;;;;;;;16.26;84.25;95562.00;29395;214;63009;-56
2023/08/03 01:54:30;;;;;;;0.40;0.40;;;;;;;16.26;82.56;95553.00;29395;202;63005;-57
2023/08/03 01:55:01;;;;;;;0.40;0.40;;;;;;;16.27;80.95;95562.81;29395;233;63009;-53
2023/08/03 01:55:32;;;;;;;0.40;0.40;;;;;;;16.26;80.64;95558.47;29395;243;63005;-56
2023/08/03 01:56:04;;;;;;;0.40;0.40;;;;;;;16.26;82.06;95556.53;29395;217;63009;-56
2023/08/03 01:56:39;;;;;;;0.50;0.50;;;;;;;16.26;83.13;95561.22;29395;203;63005;-56
2023/08/03 01:57:14;;;;;;;0.50;0.50;;;;;;;16.29;83.36;95568.69;29394;199;64007;-56
2023/08/03 01:57:46;;;;;;;0.50;0.50;;;;;;;16.31;82.10;95555.44;29395;213;63004;-56
2023/08/03 01:58:17;;;;;;;0.43;0.43;;;;;;;16.27;80.01;95562.81;29394;298;64009;-56
2023/08/03 01:58:48;;;;;;;0.40;0.40;;;;;;;16.24;80.02;95560.78;29395;236;63006;-55
2023/08/03 01:59:20;;;;;;;0.40;0.40;;;;;;;16.26;80.23;95558.47;29395;215;63008;-56
2023/08/03 01:59:51;;;;;;;0.50;0.50;;;;;;;16.26;81.47;95569.44;29395;220;63004;-57
2023/08/03 02:00:24;;;;;;;0.50;0.50;;;;;;;16.30;81.87;95564.78;29395;225;63009;-59
2023/08/03 02:00:55;;;;;;;0.50;0.50;;;;;;;16.25;79.83;95556.91;29395;204;63005;-55
2023/08/03 02:01:26;;;;;;;0.40;0.40;;;;;;;16.24;81.95;95566.25;29395;203;63009;-56
2023/08/03 02:01:58;;;;;;;0.50;0.50;;;;;;;16.22;82.21;95566.63;29394;233;64009;-55
2023/08/03 02:02:29;;;;;;;0.45;0.45;;;;;;;16.20;80.68;95566.19;29395;245;63009;-55
2023/08/03 02:03:01;;;;;;;0.43;0.43;;;;;;;16.21;80.23;95572.44;29395;199;63005;-55
2023/08/03 02:03:32;;;;;;;0.50;0.50;;;;;;;16.18;80.91;95573.16;29395;203;63009;-56
2023/08/03 02:04:04;;;;;;;0.50;0.50;;;;;;;16.17;82.36;95572.37;29394;202;64009;-55
2023/08/03 02:04:35;;;;;;;0.40;0.40;;;;;;;16.23;81.87;95570.16;29395;203;63009;-54
2023/08/03 02:05:07;;;;;;;0.50;0.50;;;;;;;16.24;80.68;95566.25;29395;245;63004;-57
2023/08/03 02:05:38;;;;;;;0.50;0.50;;;;;;;16.22;81.26;95565.81;29395;225;63004;-55
2023/08/03 02:06:09;;;;;;;0.40;0.40;;;;;;;16.20;81.29;95576.34;29395;236;63004;-55
2023/08/03 02:06:41;;;;;;;0.40;0.40;;;;;;;16.20;83.00;95581.81;29395;196;63009;-55
2023/08/03 02:07:17;;;;;;;0.40;0.40;;;;;;;16.19;82.56;95580.22;29394;257;64008;-56
2023/08/03 02:07:54;;;;;;;0.40;0.40;;;;;;;16.17;82.33;95582.53;29395;282;63009;-56
2023/08/03 02:08:25;;;;;;;0.47;0.47;;;;;;;16.14;82.22;95575.03;29395;284;63005;-55
2023/08/03 02:09:00;;;;;;;0.47;0.47;;;;;;;16.12;82.20;95580.87;29395;204;63009;-55
2023/08/03 02:09:31;;;;;;;0.40;0.40;;;;;;;16.11;83.12;95583.97;29395;223;63005;-56
2023/08/03 02:10:03;;;;;;;0.40;0.40;;;;;;;16.11;83.26;95592.16;29395;261;63009;-56
2023/08/03 02:10:34;;;;;;;0.40;0.40;;;;;;;16.11;81.47;95586.69;29395;234;63005;-58
2023/08/03 02:11:05;;;;;;;0.40;0.40;;;;;;;16.12;82.17;95585.56;29394;200;64013;-55
2023/08/03 02:11:36;;;;;;;0.43;0.43;;;;;;;16.16;82.54;95580.94;29395;237;63005;-56
2023/08/03 02:12:08;;;;;;;0.50;0.50;;;;;;;16.15;81.90;95579.34;29395;198;63009;-56
2023/08/03 02:12:40;;;;;;;0.40;0.40;;;;;;;16.09;81.04;95576.12;29395;202;63004;-58
2023/08/03 02:13:11;;;;;;;0.50;0.50;;;;;;;16.17;80.62;95577.84;29395;240;63009;-56
2023/08/03 02:13:42;;;;;;;0.40;0.40;;;;;;;16.15;80.41;95574.69;29395;208;63004;-55
2023/08/03 02:14:13;;;;;;;0.40;0.40;;;;;;;16.13;82.34;95576.97;29395;209;63009;-56
2023/08/03 02:14:45;;;;;;;0.40;0.40;;;;;;;16.15;82.87;95580.16;29395;338;63004;-56
2023/08/03 02:15:17;;;;;;;0.40;0.40;;;;;;;16.11;82.68;95584.75;29395;201;63020;-58
2023/08/03 02:15:48;;;;;;;0.50;0.50;;;;;;;16.17;80.68;95583.31;29395;270;63005;-55
2023/08/03 02:16:19;;;;;;;0.43;0.43;;;;;;;16.17;81.89;95582.53;29394;217;64014;-55
2023/08/03 02:16:50;;;;;;;0.50;0.50;;;;;;;16.10;81.49;95588.66;29394;235;64005;-56
2023/08/03 02:17:24;;;;;;;0.40;0.40;;;;;;;16.12;82.73;95580.06;29395;254;63009;-56
2023/08/03 02:17:55;;;;;;;0.47;0.47;;;;;;;16.16;81.33;95580.94;29395;202;63005;-56
2023/08/03 02:18:29;;;;;;;0.50;0.50;;;;;;;16.16;81.41;95586.41;29394;299;64013;-55
2023/08/03 02:19:00;;;;;;;0.43;0.43;;;;;;;16.12;81.15;95593.75;29395;201;63005;-55
2023/08/03 02:19:32;;;;;;;0.40;0.40;;;;;;;16.17;81.23;95585.25;29395;235;63009;-58
2023/08/03 02:20:07;;;;;;;0.40;0.40;;;;;;;16.15;81.41;95584.84;29395;196;63004;-56
2023/08/03 02:20:38;;;;;;;0.40;0.40;;;;;;;16.16;81.25;95602.84;29395;205;63009;-56
2023/08/03 02:21:09;;;;;;;0.50;0.50;;;;;;;16.15;81.17;95587.56;29395;248;63004;-56
2023/08/03 02:21:40;;;;;;;0.45;0.45;;;;;;;16.13;80.98;95593.41;29395;198;63009;-55
2023/08/03 02:22:13;;;;;;;0.50;0.50;;;;;;;16.09;80.96;95581.59;29395;196;63004;-56
2023/08/03 02:22:44;;;;;;;0.40;0.40;;;;;;;16.06;81.06;95585.84;29395;198;63008;-55
2023/08/03 02:23:15;;;;;;;0.40;0.40;;;;;;;16.06;82.12;95587.78;29394;270;64009;-55
2023/08/03 02:23:47;;;;;;;0.50;0.50;;;;;;;16.05;83.18;95591.66;29395;197;63009;-60
2023/08/03 02:24:18;;;;;;;0.40;0.40;;;;;;;16.07;83.20;95590.16;29395;224;63011;-55
2023/08/03 02:24:50;;;;;;;0.50;0.50;;;;;;;16.05;82.98;95578.78;29395;226;63009;-56
2023/08/03 02:25:23;;;;;;;0.45;0.45;;;;;;;16.06;82.66;95595.97;29395;209;63005;-56
2023/08/03 02:25:54;;;;;;;0.50;0.50;;;;;;;16.04;81.29;95595.53;29395;214;63009;-57
2023/08/03 02:26:26;;;;;;;0.50;0.50;;;;;;;16.08;81.41;95591.75;29394;221;64009;-61
2023/08/03 02:26:57;;;;;;;0.50;0.50;;;;;;;16.08;80.62;95590.94;29395;248;63009;-55
2023/08/03 02:27:28;;;;;;;0.43;0.43;;;;;;;16.07;81.61;95594.84;29395;287;63004;-56
2023/08/03 02:27:59;;;;;;;0.40;0.40;;;;;;;16.07;81.88;95594.84;29395;225;63009;-59
2023/08/03 02:28:31;;;;;;;0.50;0.50;;;;;;;16.18;80.49;95601.31;29395;236;63004;-66
2023/08/03 02:29:02;;;;;;;0.40;0.40;;;;;;;16.20;79.74;95603.72;29395;219;63009;-58
2023/08/03 02:29:34;;;;;;;0.50;0.50;;;;;;;16.18;80.28;95600.53;29395;224;63010;-55
2023/08/03 02:30:07;;;;;;;0.50;0.50;;;;;;;16.17;80.61;95594.28;29395;218;63008;-55
2023/08/03 02:30:39;;;;;;;0.40;0.40;;;;;;;16.18;79.42;95601.31;29395;232;63005;-61
2023/08/03 02:31:11;;;;;;;0.40;0.40;;;;;;;16.19;78.86;95597.44;29394;202;64014;-55
2023/08/03 02:31:42;;;;;;;0.47;0.47;;;;;;;16.21;80.00;95594.34;29395;224;63010;-55
2023/08/03 02:32:14;;;;;;;0.40;0.40;;;;;;;16.22;79.76;95593.19;29395;195;63009;-54
2023/08/03 02:32:45;;;;;;;0.50;0.50;;;;;;;16.19;80.09;95599.38;29395;324;63008;-55
2023/08/03 02:33:16;;;;;;;0.40;0.40;;;;;;;16.16;80.93;95594.63;29395;281;63009;-56
2023/08/03 02:33:47;;;;;;;0.30;0.30;;;;;;;16.12;80.97;95599.22;29394;238;64009;-55
2023/08/03 02:35:27;;;;;;;0.40;0.40;;;;;;;16.17;79.86;95588.00;88174;212;64004;-55